Flight Track Log - Related Links

Times and Time Zones

All times are in EDT time to prevent confusion due to time zone crossing. See the CHH7104 flight status page for this flight to view local times or setup timezone preferences in your user account.

Time Position Orientation Groundspeed Altitude Reporting Facility
EDT Latitude Longitude Course Direction KTS MPH feet Rate Location/Type
Fri 10:54:00 PM 44.4872 129.4301 250° West  Level Estimated
Fri 10:55:00 PM 44.4502 129.2914 250° West  Level Estimated
Fri 10:56:00 PM 44.4131 129.1528 249° West  Level Estimated
Fri 10:57:00 PM 44.3757 129.0144 249° West  Level Estimated
Fri 10:58:00 PM 44.3382 128.8763 249° West  Level Estimated
Fri 10:59:00 PM 44.3005 128.7382 249° West  Level Estimated
Fri 11:00:00 PM 44.2627 128.6004 249° West  Level Estimated
Fri 11:01:00 PM 44.2247 128.4627 249° West  Level Estimated
Fri 11:02:00 PM 44.1865 128.3253 249° West  Level Estimated
Fri 11:03:00 PM 44.1482 128.1880 249° West  Level Estimated
Fri 11:04:00 PM 44.1097 128.0508 249° West  Level Estimated
Fri 11:05:00 PM 44.0710 127.9139 249° West  Level Estimated
Fri 11:06:00 PM 44.0322 127.7771 248° West  Level Estimated
Fri 11:07:00 PM 43.9932 127.6405 248° West  Level Estimated
Fri 11:08:00 PM 43.9541 127.5041 248° West  Level Estimated
Fri 11:09:00 PM 43.9147 127.3679 248° West  Level Estimated
Fri 11:10:00 PM 43.8753 127.2319 248° West  Level Estimated
Fri 11:11:00 PM 43.8356 127.0960 248° West  Level Estimated
Fri 11:12:00 PM 43.7958 126.9603 248° West  Level Estimated
Fri 11:13:00 PM 43.7559 126.8248 248° West  Level Estimated
Fri 11:14:00 PM 43.7158 126.6895 248° West  Level Estimated
Fri 11:15:00 PM 43.6755 126.5543 248° West  Level Estimated
Fri 11:16:00 PM 43.6351 126.4194 248° West  Level Estimated
Fri 11:17:00 PM 43.6043 126.3173 247° West  Level Estimated
Fri 11:18:00 PM 43.5735 126.2152 247° West  Level Estimated
Fri 11:19:00 PM 43.5426 126.1133 247° West  Level Estimated
Fri 11:20:00 PM 43.5116 126.0115 247° West  Level Estimated
Fri 11:21:00 PM 43.4804 125.9098 247° West  Level Estimated
Fri 11:22:00 PM 43.4493 125.8082 247° West  Level Estimated
Fri 11:23:00 PM 43.4180 125.7067 247° West  Level Estimated
Fri 11:24:00 PM 43.3866 125.6053 247° West  Level Estimated
Fri 11:25:00 PM 43.3551 125.5041 247° West  Level Estimated
Fri 11:26:00 PM 43.3236 125.4029 247° West  Level Estimated
Fri 11:27:00 PM 43.2920 125.3018 247° West  Level Estimated
Fri 11:28:00 PM 43.2602 125.2008 247° West  Level Estimated
Fri 11:29:00 PM 43.2284 125.1000 247° West  Level Estimated
Fri 11:30:00 PM 43.1965 124.9992 247° West  Level Estimated
Fri 11:31:00 PM 43.1645 124.8986 246° West  Level Estimated
Fri 11:32:00 PM 43.1324 124.7980 246° West  Level Estimated
Fri 11:33:00 PM 43.1003 124.6976 246° West  Level Estimated
Fri 11:34:00 PM 43.0680 124.5973 246° West  Level Estimated
Fri 11:35:00 PM 43.0357 124.4970 246° West  Level Estimated
Fri 11:36:00 PM 43.0032 124.3969 246° West  Level Estimated
Fri 11:37:00 PM 42.9707 124.2969 246° West  Level Estimated
Fri 11:38:00 PM 42.9381 124.1970 246° West  Level Estimated
Fri 11:39:00 PM 42.9054 124.0972 246° West  Level Estimated
Fri 11:40:00 PM 42.8726 123.9975 246° West  Level Estimated
Fri 11:41:00 PM 42.8398 123.8979 246° West  Level Estimated
Fri 11:42:00 PM 42.8068 123.7984 246° West  Level Estimated
Fri 11:43:00 PM 42.7738 123.6990 246° West  Level Estimated
Fri 11:44:00 PM 42.7407 123.5997 246° West  Level Estimated
Fri 11:45:00 PM 42.7075 123.5005 246° West  Level Estimated
Fri 11:46:00 PM 42.6742 123.4015 245° Southwest  Level Estimated
Fri 11:47:00 PM 42.6408 123.3025 245° Southwest  Level Estimated
Fri 11:48:00 PM 42.6073 123.2037 245° Southwest  Level Estimated
Fri 11:49:00 PM 42.5738 123.1049 245° Southwest  Level Estimated
Fri 11:50:00 PM 42.5401 123.0063 245° Southwest  Level Estimated
Fri 11:51:00 PM 42.5064 122.9078 245° Southwest  Level Estimated
Fri 11:52:00 PM 42.4726 122.8093 245° Southwest  Level Estimated
Fri 11:53:00 PM 42.4387 122.7110 245° Southwest  Level Estimated
Fri 11:54:00 PM 42.4048 122.6128 245° Southwest  Level Estimated
Fri 11:55:00 PM 42.3707 122.5147 245° Southwest  Level Estimated
Fri 11:56:00 PM 42.3366 122.4167 245° Southwest  Level Estimated
Fri 11:57:00 PM 42.3023 122.3188 245° Southwest  Level Estimated
Fri 11:58:00 PM 42.2680 122.2210 245° Southwest  Level Estimated
Fri 11:59:00 PM 42.2336 122.1233 245° Southwest  Level Estimated
Sat 12:00:00 AM 42.1992 122.0258 245° Southwest  Level Estimated
Sat 12:01:00 AM 42.1646 121.9283 244° Southwest  Level Estimated
Sat 12:02:00 AM 42.1300 121.8309 244° Southwest  Level Estimated
Sat 12:03:00 AM 42.0953 121.7337 244° Southwest  Level Estimated
Sat 12:04:00 AM 42.0605 121.6365 244° Southwest  Level Estimated
Sat 12:05:00 AM 42.0256 121.5395 244° Southwest  Level Estimated
Sat 12:06:00 AM 41.9906 121.4426 244° Southwest  Level Estimated
Sat 12:07:00 AM 41.9556 121.3457 244° Southwest  Level Estimated
Sat 12:08:00 AM 41.9204 121.2490 244° Southwest  Level Estimated
Sat 12:09:00 AM 41.8852 121.1524 244° Southwest  Level Estimated
Sat 12:10:00 AM 41.8499 121.0559 244° Southwest  Level Estimated
Sat 12:11:00 AM 41.8146 120.9595 244° Southwest  Level Estimated
Sat 12:12:00 AM 41.7791 120.8632 244° Southwest  Level Estimated
Sat 12:13:00 AM 41.7436 120.7670 244° Southwest  Level Estimated
Sat 12:14:00 AM 41.7080 120.6709 244° Southwest  Level Estimated
Sat 12:15:00 AM 41.6723 120.5750 244° Southwest  Level Estimated
Sat 12:16:00 AM 41.6365 120.4791 243° Southwest  Level Estimated
Sat 12:17:00 AM 41.6007 120.3833 243° Southwest  Level Estimated
Sat 12:18:00 AM 41.5648 120.2877 243° Southwest  Level Estimated
Sat 12:19:00 AM 41.5288 120.1921 243° Southwest  Level Estimated
Sat 12:20:00 AM 41.4927 120.0967 243° Southwest  Level Estimated
Sat 12:21:00 AM 41.4565 120.0013 243° Southwest  Level Estimated
Sat 12:22:00 AM 41.4202 119.9061 243° Southwest  Level Estimated
Sat 12:23:00 AM 41.3839 119.8110 243° Southwest  Level Estimated
Sat 12:24:00 AM 41.3475 119.7160 243° Southwest  Level Estimated
Sat 12:25:00 AM 41.3111 119.6210 243° Southwest  Level Estimated
Sat 12:26:00 AM 41.2745 119.5262 243° Southwest  Level Estimated
Sat 12:27:00 AM 41.2379 119.4315 243° Southwest  Level Estimated
Sat 12:28:00 AM 41.2011 119.3369 243° Southwest  Level Estimated
Sat 12:29:00 AM 41.1643 119.2425 243° Southwest  Level Estimated
Sat 12:30:00 AM 41.1275 119.1481 243° Southwest  Level Estimated
Sat 12:31:00 AM 41.0905 119.0538 243° Southwest  Level Estimated
Sat 12:32:00 AM 41.0535 118.9596 242° Southwest  Level Estimated
Sat 12:33:00 AM 41.0164 118.8656 242° Southwest  Level Estimated
Sat 12:34:00 AM 40.9793 118.7716 242° Southwest  Level Estimated
Sat 12:35:00 AM 40.9420 118.6778 242° Southwest  Level Estimated
Sat 12:36:00 AM 40.9047 118.5840 242° Southwest  Level Estimated
Sat 12:37:00 AM 40.8673 118.4904 242° Southwest  Level Estimated
Sat 12:38:00 AM 40.8298 118.3969 242° Southwest  Level Estimated
Sat 12:39:00 AM 40.7923 118.3034 242° Southwest  Level Estimated
Sat 12:40:00 AM 40.7546 118.2101 242° Southwest  Level Estimated
Sat 12:41:00 AM 40.7169 118.1169 242° Southwest  Level Estimated
Sat 12:42:00 AM 40.6791 118.0238 242° Southwest  Level Estimated
Sat 12:43:00 AM 40.6413 117.9308 242° Southwest  Level Estimated
Sat 12:44:00 AM 40.6034 117.8379 242° Southwest  Level Estimated
Sat 12:45:00 AM 40.5654 117.7451 242° Southwest  Level Estimated
Sat 12:46:00 AM 40.5273 117.6524 242° Southwest  Level Estimated
Sat 12:47:00 AM 40.4891 117.5598 242° Southwest  Level Estimated
Sat 12:48:00 AM 40.4509 117.4673 242° Southwest  Level Estimated
Sat 12:49:00 AM 40.4126 117.3750 241° Southwest  Level Estimated
Sat 12:50:00 AM 40.3742 117.2827 241° Southwest  Level Estimated
Sat 12:51:00 AM 40.3358 117.1905 241° Southwest  Level Estimated
Sat 12:52:00 AM 40.2973 117.0985 241° Southwest  Level Estimated
Sat 12:53:00 AM 40.2587 117.0065 241° Southwest  Level Estimated
Sat 12:54:00 AM 40.2200 116.9147 241° Southwest  Level Estimated
Sat 12:55:00 AM 40.1813 116.8229 241° Southwest  Level Estimated
Sat 12:56:00 AM 40.1425 116.7313 241° Southwest  Level Estimated
Sat 12:57:00 AM 40.1036 116.6398 241° Southwest  Level Estimated
Sat 12:58:00 AM 40.0801 116.5846 241° Southwest  Level Estimated
Sat 12:59:00 AM 40.0801 116.5846 North  Level Estimated
Sat 01:00:00 AM 40.0801 116.5846 North  Level Estimated
Sat 01:01:00 AM 40.0801 116.5846 North  Level Estimated
Sat 01:02:00 AM 40.0801 116.5846 North  Level Estimated
Sat 01:03:00 AM 40.0801 116.5846 North  Level Estimated
Sat 01:04:00 AM 40.0801 116.5846 North  Level Estimated
Sat 01:05:00 AM 40.0801 116.5846 North  Level Estimated
Sat 01:06:00 AM 40.0801 116.5846 North  Level Estimated

Login

Don't have an account? Register now (free) for customized features, flight alerts, and more!